Devils Lake, ND

3:08 PM CDT on April 25, 2017 (GMT -0500)
Devils Lake Municipal

Weather History for KDVL - November, 2012

Change the Weather History Date:

Friday, November 30, 2012

  Actual Average Record
Temperature  
Mean Temperature 22 °F -  
Max Temperature 30 °F 26 °F 50 °F (1969)
Min Temperature 15 °F 12 °F -22 °F (1964)
Degree Days  
Heating Degree Days 42    
Moisture  
Dew Point 20 °F    
Average Humidity 86    
Maximum Humidity 93    
Minimum Humidity 73    
Precipitation  
Precipitation 0.00 in - - ()
Sea Level Pressure  
Sea Level Pressure 29.94 in    
Wind  
Wind Speed 12 mph (SSE)    
Max Wind Speed 20 mph    
Max Gust Speed 26 mph    
Visibility 5 miles    
Events      
Averages and records for this station are not official NWS values.
T = Trace of Precipitation, MM = Missing Value Source: NWS Daily Summary

Daily Weather History Graph

Daily Weather History Graph

Search for Another Location

Airport or City:

Trip Planner

Search our weather history database for the weather conditions in past years. The results will help you decide how hot, cold, wet, or windy it might be!

Date:

Astronomy

Nov. 30, 2012 Rise Set
Actual Time 8:04 AM CST 4:44 PM CST
Civil Twilight 7:28 AM CST 5:20 PM CST
Nautical Twilight 6:49 AM CST 5:59 PM CST
Astronomical Twilight 6:12 AM CST 6:36 PM CST
Moon 6:41 PM CST (11/30) 9:36 AM CST (11/30)
Length of Visible Light 9h 51m
Length of Day
8h 40m
Waning Gibbous, 96% of the Moon is Illuminated
Nov 30
Waning Gibbous
Dec 6
Last Quarter
Dec 13
New
Dec 19
First Quarter
Dec 28
Full

Hourly Weather History & Observations

Time (CST) Temp. Windchill Dew Point Humidity Pressure Visibility Wind Dir Wind Speed Gust Speed Precip Events Conditions
12:15 AM 15.8 °F 4.2 °F 8.6 °F 73% 30.11 in 10.0 mi ESE 9.2 mph - N/A   Overcast
12:35 AM 15.8 °F 3.4 °F 8.6 °F 73% 30.12 in 10.0 mi ESE 10.4 mph - N/A   Overcast
1:15 AM 15.8 °F 2.7 °F 8.6 °F 73% 30.10 in 10.0 mi ESE 11.5 mph - N/A   Overcast
1:35 AM 15.8 °F 5.1 °F 8.6 °F 73% 30.11 in 10.0 mi East 8.1 mph - N/A   Overcast
1:55 AM 15.8 °F 5.1 °F 10.4 °F 79% 30.10 in 10.0 mi ESE 8.1 mph - N/A   Overcast
2:15 AM 15.8 °F 3.4 °F 10.4 °F 79% 30.11 in 10.0 mi East 10.4 mph - N/A   Overcast
2:35 AM 15.8 °F 5.1 °F 10.4 °F 79% 30.12 in 10.0 mi ESE 8.1 mph - N/A   Overcast
2:55 AM 17.6 °F 5.7 °F 10.4 °F 73% 30.11 in 10.0 mi ESE 10.4 mph - N/A   Overcast
3:15 AM 15.8 °F 6.1 °F 10.4 °F 79% 30.11 in 10.0 mi ESE 6.9 mph - N/A   Overcast
3:35 AM 15.8 °F 5.1 °F 12.2 °F 86% 30.10 in 10.0 mi ESE 8.1 mph - N/A   Overcast
3:55 AM 15.8 °F 5.1 °F 12.2 °F 86% 30.10 in 10.0 mi ESE 8.1 mph - N/A   Overcast
4:15 AM 15.8 °F 4.2 °F 12.2 °F 86% 30.09 in 7.0 mi ESE 9.2 mph - N/A   Overcast
4:35 AM 17.6 °F 5.7 °F 12.2 °F 79% 30.07 in 5.0 mi ESE 10.4 mph - N/A   Overcast
4:55 AM 17.6 °F 5.7 °F 14.0 °F 86% 30.06 in 4.0 mi ESE 10.4 mph - N/A   Overcast
5:15 AM 17.6 °F 4.3 °F 14.0 °F 86% 30.06 in 3.0 mi ESE 12.7 mph - N/A   Overcast
5:35 AM 17.6 °F 5.0 °F 14.0 °F 86% 30.05 in 1.8 mi ESE 11.5 mph - N/A   Overcast
5:55 AM 17.6 °F 6.4 °F 15.8 °F 93% 30.06 in 1.8 mi ESE 9.2 mph - N/A   Overcast
6:15 AM 19.4 °F 9.5 °F 15.8 °F 86% 30.06 in 1.8 mi SE 8.1 mph - N/A   Overcast
6:35 AM 19.4 °F 7.2 °F 15.8 °F 86% 30.06 in 2.5 mi SSE 11.5 mph - N/A   Overcast
6:55 AM 19.4 °F 8.6 °F 15.8 °F 86% 30.05 in 3.0 mi SSE 9.2 mph - N/A   Overcast
7:15 AM 19.4 °F 8.6 °F 15.8 °F 86% 30.05 in 4.0 mi SSE 9.2 mph - N/A   Overcast
7:35 AM 19.4 °F 8.6 °F 17.6 °F 93% 30.05 in 5.0 mi SSE 9.2 mph - N/A   Overcast
7:55 AM 19.4 °F 7.2 °F 17.6 °F 93% 30.04 in 4.0 mi SSE 11.5 mph - N/A   Overcast
8:15 AM 19.4 °F 9.5 °F 17.6 °F 93% 30.04 in 3.0 mi SSE 8.1 mph - N/A   Overcast
8:35 AM 21.2 °F 10.9 °F 17.6 °F 86% 30.03 in 2.5 mi SSE 9.2 mph - N/A   Overcast
8:55 AM 21.2 °F 9.5 °F 17.6 °F 86% 30.02 in 2.0 mi SSE 11.5 mph - N/A   Overcast
9:15 AM 21.2 °F 11.7 °F 19.4 °F 93% 30.03 in 2.5 mi South 8.1 mph - N/A   Overcast
9:35 AM 21.2 °F 10.1 °F 19.4 °F 93% 30.02 in 3.0 mi South 10.4 mph - N/A   Overcast
9:55 AM 23.0 °F 12.4 °F 19.4 °F 86% 30.01 in 3.0 mi SSE 10.4 mph - N/A   Overcast
10:15 AM 23.0 °F 12.4 °F 21.2 °F 93% 30.01 in 3.0 mi SSE 10.4 mph - N/A   Overcast
10:35 AM 24.8 °F 14.0 °F 21.2 °F 86% 30.01 in 3.0 mi South 11.5 mph - N/A   Overcast
10:55 AM 24.8 °F 12.9 °F 21.2 °F 86% 30.00 in 3.0 mi South 13.8 mph - N/A   Overcast
11:15 AM 24.8 °F 14.0 °F 21.2 °F 86% 30.01 in 3.0 mi South 11.5 mph - N/A   Overcast
11:35 AM 24.8 °F 12.9 °F 21.2 °F 86% 29.98 in 3.0 mi SSE 13.8 mph 17.3 mph N/A   Overcast
11:55 AM 24.8 °F 12.9 °F 21.2 °F 86% 29.98 in 3.0 mi South 13.8 mph - N/A   Overcast
12:15 PM 24.8 °F 11.9 °F 21.2 °F 86% 29.98 in 3.0 mi South 16.1 mph - N/A   Overcast
12:35 PM 24.8 °F 11.9 °F 21.2 °F 86% 29.97 in 3.0 mi South 16.1 mph - N/A   Overcast
12:55 PM 26.6 °F 15.2 °F 23.0 °F 86% 29.98 in 3.0 mi South 13.8 mph - N/A   Overcast
1:15 PM 26.6 °F 15.2 °F 23.0 °F 86% 29.94 in 3.0 mi South 13.8 mph 19.6 mph N/A   Overcast
1:35 PM 26.6 °F 16.2 °F 24.8 °F 93% 29.92 in 3.0 mi SSE 11.5 mph - N/A   Overcast
1:55 PM 26.6 °F 13.4 °F 24.8 °F 93% 29.91 in 3.0 mi South 18.4 mph - N/A   Overcast
2:15 PM 26.6 °F 13.4 °F 24.8 °F 93% 29.89 in 3.0 mi South 18.4 mph - N/A   Overcast
2:35 PM 26.6 °F 14.7 °F 24.8 °F 93% 29.88 in 3.0 mi SSE 15.0 mph 24.2 mph N/A   Overcast
2:55 PM 26.6 °F 13.1 °F 24.8 °F 93% 29.87 in 3.0 mi South 19.6 mph 26.5 mph N/A   Overcast
3:15 PM 28.4 °F 16.2 °F 24.8 °F 86% 29.86 in 3.0 mi SSE 17.3 mph - N/A   Overcast
3:35 PM 28.4 °F 15.4 °F 24.8 °F 86% 29.86 in 3.0 mi South 19.6 mph 23.0 mph N/A   Overcast
3:55 PM 28.4 °F 15.4 °F 24.8 °F 86% 29.85 in 3.0 mi SSE 19.6 mph 23.0 mph N/A   Overcast
4:15 PM 28.4 °F 16.2 °F 24.8 °F 86% 29.86 in 3.0 mi SSE 17.3 mph 20.7 mph N/A   Overcast
4:35 PM 28.4 °F 16.6 °F 24.8 °F 86% 29.84 in 3.0 mi SSE 16.1 mph - N/A   Overcast
4:55 PM 28.4 °F 16.2 °F 24.8 °F 86% 29.84 in 3.0 mi SSE 17.3 mph - N/A   Overcast
5:15 PM 28.4 °F 16.6 °F 24.8 °F 86% 29.83 in 4.0 mi SSE 16.1 mph 24.2 mph N/A   Overcast
5:35 PM 28.4 °F 15.4 °F 24.8 °F 86% 29.82 in 4.0 mi SSE 19.6 mph - N/A   Overcast
5:55 PM 28.4 °F 16.6 °F 24.8 °F 86% 29.82 in 4.0 mi SSE 16.1 mph 20.7 mph N/A   Overcast
6:15 PM 28.4 °F 15.8 °F 24.8 °F 86% 29.81 in 4.0 mi SSE 18.4 mph - N/A   Overcast
6:35 PM 28.4 °F 16.2 °F 24.8 °F 86% 29.80 in 5.0 mi SSE 17.3 mph 26.5 mph N/A   Overcast
6:55 PM 28.4 °F 16.6 °F 24.8 °F 86% 29.80 in 5.0 mi SSE 16.1 mph - N/A   Overcast
7:15 PM 28.4 °F 16.6 °F 23.0 °F 80% 29.80 in 5.0 mi SSE 16.1 mph 20.7 mph N/A   Overcast
7:35 PM 28.4 °F 15.4 °F 23.0 °F 80% 29.78 in 5.0 mi SSE 19.6 mph - N/A   Overcast
7:55 PM 28.4 °F 16.2 °F 24.8 °F 86% 29.77 in 5.0 mi SSE 17.3 mph 23.0 mph N/A   Overcast
8:15 PM 28.4 °F 17.5 °F 24.8 °F 86% 29.77 in 5.0 mi South 13.8 mph 19.6 mph N/A   Overcast
8:35 PM 28.4 °F 17.5 °F 24.8 °F 86% 29.77 in 5.0 mi SSE 13.8 mph - N/A   Overcast
8:55 PM 28.4 °F 16.6 °F 24.8 °F 86% 29.76 in 5.0 mi SSE 16.1 mph - N/A   Mostly Cloudy
9:15 PM 28.4 °F 18.5 °F 24.8 °F 86% 29.77 in 5.0 mi SSE 11.5 mph - N/A   Mostly Cloudy
9:35 PM 28.4 °F 19.7 °F 24.8 °F 86% 29.76 in 5.0 mi SSE 9.2 mph - N/A   Overcast
9:55 PM 28.4 °F 18.0 °F 24.8 °F 86% 29.75 in 5.0 mi SSE 12.7 mph - N/A   Mostly Cloudy
10:15 PM 28.4 °F 18.5 °F 24.8 °F 86% 29.74 in 5.0 mi SSE 11.5 mph - N/A   Mostly Cloudy
10:35 PM 28.4 °F 17.5 °F 24.8 °F 86% 29.74 in 5.0 mi South 13.8 mph - N/A   Mostly Cloudy
10:55 PM 28.4 °F 18.0 °F 24.8 °F 86% 29.73 in 5.0 mi SSE 12.7 mph - N/A   Overcast
11:15 PM 30.2 °F 20.2 °F 26.6 °F 86% 29.72 in 4.0 mi SSE 12.7 mph - N/A   Overcast
11:35 PM 30.2 °F 19.3 °F 26.6 °F 86% 29.71 in 4.0 mi SSE 15.0 mph - N/A   Mostly Cloudy
11:55 PM 30.2 °F 19.8 °F 26.6 °F 86% 29.70 in 4.0 mi SSE 13.8 mph - N/A   Scattered Clouds